Terminal Aerodrome Forecast
Issued by NWS

Current Version | Previous Version | Graphics & Text | Print | Product List | Glossary On
Versions: 1 2 3 4 5 6 7 8 9 10 11 12 13 14 15 16 17 18 19
000
FTUS41 KRLX 181135
TAFCKB
TAF
KCKB 181135Z 1812/1912 21004KT P6SM FEW250
     FM181700 23009G15KT P6SM BKN150
     FM190200 23005KT P6SM VCSH OVC040
     FM190600 24006KT P6SM VCSH OVC015=

USA.gov is the U.S. government's official web portal to all federal, state and local government web resources and services.